createdAt,value
2019-01-21T00:01:05.568Z,51.05
2019-01-21T00:03:34.686Z,46.58
2019-01-21T00:06:03.748Z,41.80
2019-01-21T00:08:32.959Z,44.65
2019-01-21T00:11:02.110Z,43.73
2019-01-21T00:13:31.212Z,46.75
2019-01-21T00:16:00.301Z,46.48
2019-01-21T00:18:29.384Z,46.50
2019-01-21T00:20:58.442Z,46.80
2019-01-21T00:23:27.523Z,49.60
2019-01-21T00:25:56.596Z,62.58
2019-01-21T00:28:25.689Z,62.65
2019-01-21T00:30:54.779Z,70.72
2019-01-21T00:33:23.888Z,111.90
2019-01-21T00:35:52.963Z,71.65
2019-01-21T00:38:22.031Z,49.55
2019-01-21T00:40:51.115Z,43.35
2019-01-21T00:43:20.165Z,48.20
2019-01-21T00:45:49.260Z,53.10
2019-01-21T00:48:18.312Z,55.10
2019-01-21T00:50:47.398Z,59.10
2019-01-21T00:53:16.455Z,59.03
2019-01-21T00:55:45.779Z,55.28
2019-01-21T00:58:14.881Z,53.70
2019-01-21T01:00:44.006Z,50.23
2019-01-21T01:03:13.057Z,50.35
2019-01-21T01:05:42.142Z,54.33
2019-01-21T01:08:11.200Z,48.42
2019-01-21T01:10:40.286Z,50.40
2019-01-21T01:13:09.384Z,49.67
2019-01-21T01:15:38.455Z,44.45
2019-01-21T01:18:07.546Z,44.27
2019-01-21T01:20:36.635Z,44.40
2019-01-21T01:23:05.739Z,40.98
2019-01-21T01:25:35.028Z,40.88
2019-01-21T01:28:04.124Z,42.33
2019-01-21T01:30:33.193Z,43.15
2019-01-21T01:33:02.242Z,40.40
2019-01-21T01:35:31.315Z,44.03
2019-01-21T01:38:00.340Z,40.65
2019-01-21T01:40:29.439Z,41.83
2019-01-21T01:42:58.473Z,40.75
2019-01-21T01:45:28.518Z,41.77
2019-01-21T01:48:00.000Z,40.95
2019-01-21T01:50:29.060Z,40.45
2019-01-21T01:52:58.182Z,43.55
2019-01-21T01:55:29.105Z,48.62
2019-01-21T01:57:59.675Z,44.77
2019-01-21T02:00:28.711Z,44.18
2019-01-21T02:02:57.850Z,43.60
2019-01-21T02:05:26.874Z,46.25
2019-01-21T02:07:55.931Z,47.08
2019-01-21T02:10:24.990Z,43.37
2019-01-21T02:12:54.078Z,45.90
2019-01-21T02:15:23.141Z,46.88
2019-01-21T02:17:52.462Z,43.55
2019-01-21T02:20:21.454Z,45.30
2019-01-21T02:22:52.955Z,45.33
2019-01-21T02:25:23.746Z,44.40
2019-01-21T02:28:09.921Z,45.10
2019-01-21T02:31:38.713Z,41.30
2019-01-21T02:34:29.008Z,43.63
2019-01-21T02:37:27.275Z,43.45
2019-01-21T02:40:32.422Z,42.78
2019-01-21T02:43:31.095Z,42.90
2019-01-21T02:46:21.928Z,46.40
2019-01-21T02:49:06.375Z,41.73
2019-01-21T02:52:13.267Z,48.02
2019-01-21T02:55:05.104Z,47.27
2019-01-21T02:58:12.475Z,44.98
2019-01-21T03:01:17.414Z,48.98
2019-01-21T03:04:10.039Z,44.60
2019-01-21T03:07:10.055Z,45.48
2019-01-21T03:10:09.563Z,47.45
2019-01-21T03:13:22.065Z,43.10
2019-01-21T03:16:20.009Z,41.23
2019-01-21T03:19:04.018Z,41.92
2019-01-21T03:22:23.430Z,46.42
2019-01-21T03:25:32.631Z,45.70
2019-01-21T03:28:43.605Z,44.93
2019-01-21T03:31:35.642Z,48.15
2019-01-21T03:34:40.841Z,47.17
2019-01-21T03:37:44.208Z,47.03
2019-01-21T03:43:22.262Z,46.25
2019-01-21T03:46:31.086Z,44.10
2019-01-21T03:49:06.310Z,45.60
2019-01-21T03:52:19.447Z,50.25
2019-01-21T03:54:52.497Z,52.90
2019-01-21T03:57:36.679Z,47.00
2019-01-21T04:00:26.635Z,52.23
2019-01-21T04:03:41.499Z,48.75
2019-01-21T04:06:31.159Z,48.10
2019-01-21T04:09:42.263Z,48.25
2019-01-21T04:16:27.970Z,52.78
2019-01-21T04:19:21.862Z,54.60
2019-01-21T04:22:26.598Z,54.67
2019-01-21T04:25:52.072Z,51.37
2019-01-21T04:28:33.031Z,55.83
2019-01-21T04:31:42.643Z,59.33
2019-01-21T04:35:08.219Z,52.95
2019-01-21T04:38:05.277Z,54.83
2019-01-21T04:41:24.776Z,51.53
2019-01-21T04:44:32.267Z,51.60
2019-01-21T04:47:45.379Z,49.30
2019-01-21T04:50:50.990Z,52.00
2019-01-21T04:53:31.944Z,51.95
2019-01-21T04:56:36.665Z,50.08
2019-01-21T04:59:41.693Z,54.88
2019-01-21T05:03:00.933Z,51.15
2019-01-21T05:06:01.931Z,51.60
2019-01-21T05:09:20.969Z,48.25
2019-01-21T05:12:18.940Z,50.60
2019-01-21T05:15:44.381Z,54.20
2019-01-21T05:18:49.635Z,52.58
2019-01-21T05:21:55.745Z,50.03
2019-01-21T05:24:44.226Z,53.42
2019-01-21T05:28:00.268Z,53.60
2019-01-21T05:31:12.201Z,68.65
2019-01-21T05:34:55.605Z,63.08
2019-01-21T05:38:07.863Z,70.87
2019-01-21T05:41:21.543Z,61.73
2019-01-21T05:47:33.529Z,63.60
2019-01-21T05:50:24.286Z,69.87
2019-01-21T05:53:26.376Z,68.30
2019-01-21T05:56:29.112Z,67.77
2019-01-21T05:59:33.431Z,67.35
2019-01-21T06:02:22.681Z,62.73
2019-01-21T06:05:20.618Z,63.28
2019-01-21T06:08:34.594Z,59.33
2019-01-21T06:11:22.394Z,62.90
2019-01-21T06:14:31.227Z,56.83
2019-01-21T06:17:23.013Z,59.60
2019-01-21T06:20:19.293Z,58.98
2019-01-21T06:23:31.468Z,62.85
2019-01-21T06:26:32.036Z,81.67
2019-01-21T06:29:26.348Z,58.52
2019-01-21T06:32:39.399Z,57.75
2019-01-21T06:35:54.594Z,61.37
2019-01-21T06:38:53.288Z,57.40
2019-01-21T06:41:59.396Z,60.35
2019-01-21T06:45:15.509Z,64.25
2019-01-21T06:48:19.340Z,70.75
2019-01-21T06:51:31.283Z,62.00
2019-01-21T06:54:11.130Z,67.27
2019-01-21T06:57:01.288Z,65.50
2019-01-21T07:00:26.591Z,69.92
2019-01-21T07:03:36.636Z,78.47
2019-01-21T07:06:48.596Z,82.17
2019-01-21T07:09:39.835Z,79.47
2019-01-21T07:12:30.272Z,79.53
2019-01-21T07:15:33.880Z,73.20
2019-01-21T07:18:41.048Z,70.95
2019-01-21T07:21:47.304Z,78.78
2019-01-21T07:24:59.338Z,75.78
2019-01-21T07:27:37.818Z,69.07
2019-01-21T07:30:46.140Z,64.20
2019-01-21T07:34:08.241Z,65.62
2019-01-21T07:37:17.467Z,68.40
2019-01-21T07:40:25.301Z,71.17
2019-01-21T07:43:30.013Z,64.90
2019-01-21T07:46:58.411Z,69.70
2019-01-21T07:50:18.170Z,60.85
2019-01-21T07:53:31.570Z,75.40
2019-01-21T07:56:21.641Z,70.52
2019-01-21T07:59:30.442Z,71.07
2019-01-21T08:02:38.324Z,66.15
2019-01-21T08:05:47.144Z,63.20
2019-01-21T08:08:35.056Z,63.25
2019-01-21T08:11:48.472Z,61.45
2019-01-21T08:14:45.946Z,63.70
2019-01-21T08:18:00.881Z,69.90
2019-01-21T08:20:56.107Z,80.25
2019-01-21T08:23:53.709Z,70.55
2019-01-21T08:27:01.227Z,70.12
2019-01-21T08:30:26.285Z,69.32
2019-01-21T08:33:29.253Z,76.72
2019-01-21T08:36:29.418Z,74.47
2019-01-21T08:39:40.140Z,75.40
2019-01-21T08:42:25.433Z,69.75
2019-01-21T08:45:29.847Z,71.65
2019-01-21T08:48:37.218Z,73.10
2019-01-21T08:51:20.186Z,73.40
2019-01-21T08:56:44.152Z,66.33
2019-01-21T08:59:42.086Z,65.15
2019-01-21T09:02:41.237Z,72.53
2019-01-21T09:05:46.409Z,70.70
2019-01-21T09:08:48.891Z,72.50
2019-01-21T09:11:53.749Z,74.13
2019-01-21T09:14:40.176Z,70.67
2019-01-21T09:17:51.842Z,69.53
2019-01-21T09:20:57.958Z,72.17
2019-01-21T09:24:08.923Z,72.78
2019-01-21T09:26:56.938Z,69.25
2019-01-21T09:29:54.550Z,71.30
2019-01-21T09:33:03.601Z,69.62
2019-01-21T09:36:09.987Z,71.60
2019-01-21T09:39:05.719Z,71.85
2019-01-21T09:42:45.514Z,73.97
2019-01-21T09:57:28.533Z,75.17
2019-01-21T09:59:59.986Z,83.35
2019-01-21T10:02:42.142Z,82.00
2019-01-21T10:05:15.180Z,79.55
2019-01-21T10:08:36.376Z,78.07
2019-01-21T10:11:55.485Z,66.12
2019-01-21T10:15:01.404Z,69.67
2019-01-21T10:18:13.285Z,65.85
2019-01-21T10:21:29.479Z,66.82
2019-01-21T10:24:49.743Z,62.50
2019-01-21T10:28:02.852Z,61.55
2019-01-21T10:30:57.904Z,66.47
2019-01-21T10:33:54.271Z,61.98
2019-01-21T10:37:06.148Z,66.40
2019-01-21T10:40:08.178Z,67.35
2019-01-21T10:43:08.082Z,71.72
2019-01-21T10:45:58.537Z,66.97
2019-01-21T10:49:15.174Z,69.55
2019-01-21T10:52:10.868Z,68.45
2019-01-21T10:55:29.737Z,66.87
2019-01-21T10:58:10.978Z,62.00
2019-01-21T11:01:12.012Z,64.70
2019-01-21T11:04:32.031Z,66.35
2019-01-21T11:07:38.523Z,61.28
2019-01-21T11:10:19.102Z,62.85
2019-01-21T11:13:12.078Z,65.03
2019-01-21T11:16:22.212Z,68.60
2019-01-21T11:19:22.227Z,61.10
2019-01-21T11:22:20.342Z,58.70
2019-01-21T11:25:19.576Z,61.02
2019-01-21T11:28:35.898Z,55.35
2019-01-21T11:31:30.519Z,51.70
2019-01-21T11:34:32.809Z,56.05
2019-01-21T11:37:48.503Z,63.83
2019-01-21T11:40:54.700Z,57.47
2019-01-21T11:44:02.240Z,59.05
2019-01-21T11:46:56.668Z,54.50
2019-01-21T11:49:50.515Z,58.25
2019-01-21T11:52:48.899Z,58.33
2019-01-21T11:55:48.206Z,57.73
2019-01-21T11:58:47.889Z,61.60
2019-01-21T12:01:46.656Z,59.48
2019-01-21T12:04:40.544Z,59.33
2019-01-21T12:07:29.492Z,57.05
2019-01-21T12:10:45.370Z,60.67
2019-01-21T12:14:00.426Z,60.28
2019-01-21T12:16:54.438Z,57.75
2019-01-21T12:19:51.893Z,59.25
2019-01-21T12:23:01.949Z,57.78
2019-01-21T12:25:47.777Z,56.60
2019-01-21T12:28:34.654Z,59.15
2019-01-21T12:32:12.343Z,55.67
2019-01-21T12:34:52.728Z,54.65
2019-01-21T12:37:34.214Z,53.42
2019-01-21T12:40:43.510Z,55.03
2019-01-21T12:43:50.907Z,53.00
2019-01-21T12:47:01.218Z,61.28
2019-01-21T12:50:07.158Z,67.30
2019-01-21T12:52:54.606Z,68.17
2019-01-21T12:55:46.544Z,53.07
2019-01-21T12:58:34.483Z,44.80
2019-01-21T13:01:46.262Z,46.30
2019-01-21T13:05:01.474Z,45.05
2019-01-21T13:08:17.386Z,42.60
2019-01-21T13:11:10.512Z,40.88
2019-01-21T13:14:21.019Z,45.25
2019-01-21T13:17:17.482Z,49.13
2019-01-21T13:20:42.850Z,50.30
2019-01-21T13:23:45.168Z,43.15
2019-01-21T13:26:46.870Z,43.52
2019-01-21T13:29:48.653Z,48.63
2019-01-21T13:32:45.760Z,48.10
2019-01-21T13:35:49.925Z,48.87
2019-01-21T13:39:17.412Z,43.17
2019-01-21T13:42:30.243Z,43.13
2019-01-21T13:45:49.240Z,42.30
2019-01-21T13:48:46.525Z,44.27
2019-01-21T13:52:08.875Z,39.88
2019-01-21T13:54:56.689Z,39.88
2019-01-21T13:58:13.014Z,41.15
2019-01-21T14:01:23.946Z,42.62
2019-01-21T14:04:21.660Z,46.48
2019-01-21T14:07:26.475Z,45.50
2019-01-21T14:10:27.431Z,44.42
2019-01-21T14:13:19.145Z,43.65
2019-01-21T14:16:32.905Z,41.35
2019-01-21T14:22:47.263Z,45.60
2019-01-21T14:26:13.107Z,77.55
2019-01-21T14:29:01.705Z,50.40
2019-01-21T14:32:05.731Z,45.63
2019-01-21T14:35:03.676Z,39.53
2019-01-21T14:38:25.857Z,46.70
2019-01-21T14:41:34.919Z,44.70
2019-01-21T14:45:03.615Z,41.33
2019-01-21T14:51:55.434Z,38.10
2019-01-21T14:55:01.565Z,39.70
2019-01-21T14:57:52.923Z,41.90
2019-01-21T15:01:15.522Z,55.93
2019-01-21T15:07:07.294Z,44.83
2019-01-21T15:10:23.923Z,39.58
2019-01-21T15:13:24.130Z,39.45
2019-01-21T15:16:46.897Z,37.83
2019-01-21T15:20:24.363Z,42.85
2019-01-21T15:23:23.134Z,45.33
2019-01-21T15:26:28.607Z,41.63
2019-01-21T15:29:24.971Z,42.95
2019-01-21T15:32:34.739Z,40.10
2019-01-21T15:35:44.899Z,40.90
2019-01-21T15:38:34.693Z,43.42
2019-01-21T15:41:40.511Z,45.60
2019-01-21T15:44:49.329Z,46.85
2019-01-21T15:47:58.249Z,48.28
2019-01-21T15:51:19.132Z,48.38
2019-01-21T15:54:49.281Z,48.98
2019-01-21T15:57:53.731Z,51.80
2019-01-21T16:01:06.108Z,52.47
2019-01-21T16:04:09.219Z,57.20
2019-01-21T16:06:47.281Z,49.67
2019-01-21T16:09:54.714Z,55.15
2019-01-21T16:12:57.886Z,56.33
2019-01-21T16:16:17.589Z,53.50
2019-01-21T16:22:41.870Z,57.83
2019-01-21T16:25:46.650Z,62.65
2019-01-21T16:28:39.677Z,65.28
2019-01-21T16:32:30.886Z,61.92
2019-01-21T16:35:22.503Z,62.73
2019-01-21T16:41:49.491Z,68.80
2019-01-21T16:44:26.603Z,65.57
2019-01-21T16:47:05.947Z,82.85
2019-01-21T16:49:42.917Z,66.35
2019-01-21T16:52:29.507Z,68.62
2019-01-21T16:55:01.085Z,63.87
2019-01-21T16:57:30.329Z,65.00
2019-01-21T16:59:59.877Z,61.33
2019-01-21T17:02:29.097Z,64.32
2019-01-21T17:04:58.359Z,65.45
2019-01-21T17:07:27.622Z,61.68
2019-01-21T17:09:58.131Z,62.05
2019-01-21T17:12:27.348Z,60.52
2019-01-21T17:15:25.703Z,66.10
2019-01-21T17:17:56.732Z,70.30
2019-01-21T17:20:31.805Z,108.07
2019-01-21T17:23:09.266Z,74.22
2019-01-21T17:25:43.365Z,66.77
2019-01-21T17:28:18.502Z,69.82
2019-01-21T17:30:58.934Z,63.50
2019-01-21T17:34:16.786Z,75.42
2019-01-21T17:36:47.687Z,67.85
2019-01-21T17:39:23.910Z,69.70
2019-01-21T17:42:06.103Z,70.65
2019-01-21T17:44:38.428Z,76.92
2019-01-21T17:47:12.718Z,66.97
2019-01-21T17:49:44.560Z,69.82
2019-01-21T17:52:26.256Z,61.37
2019-01-21T17:55:02.662Z,59.98
2019-01-21T17:57:41.444Z,59.58
2019-01-21T18:00:15.335Z,60.83
2019-01-21T18:02:44.696Z,62.20
2019-01-21T18:05:14.079Z,71.23
2019-01-21T18:07:43.470Z,58.50
2019-01-21T18:10:13.996Z,58.17
2019-01-21T18:12:43.220Z,63.95
2019-01-21T18:15:13.018Z,64.14
2019-01-21T18:17:42.379Z,66.07
2019-01-21T18:20:23.413Z,65.72
2019-01-21T18:23:28.392Z,67.60
2019-01-21T18:26:46.842Z,65.03
2019-01-21T18:29:33.357Z,71.72
2019-01-21T18:32:05.600Z,71.95
2019-01-21T18:34:38.641Z,56.42
2019-01-21T18:37:28.719Z,71.35
2019-01-21T18:39:45.418Z,64.50
2019-01-21T18:42:14.715Z,74.92
2019-01-21T18:44:48.596Z,73.35
2019-01-21T18:47:17.836Z,78.42
2019-01-21T18:49:48.847Z,70.97
2019-01-21T18:52:18.060Z,70.72
2019-01-21T18:54:47.798Z,75.15
2019-01-21T18:57:17.093Z,75.67
2019-01-21T18:59:46.504Z,83.47
2019-01-21T19:02:23.002Z,80.30
2019-01-21T19:04:54.424Z,80.15
2019-01-21T19:07:28.270Z,77.25
2019-01-21T19:10:00.324Z,78.72
2019-01-21T19:12:29.523Z,85.07
2019-01-21T19:14:58.765Z,78.52
2019-01-21T19:17:27.934Z,79.82
2019-01-21T19:19:57.091Z,80.30
2019-01-21T19:22:26.348Z,75.25
2019-01-21T19:24:55.565Z,75.75
2019-01-21T19:27:24.953Z,86.78
2019-01-21T19:29:54.285Z,79.45
2019-01-21T19:32:23.453Z,82.62
2019-01-21T19:34:52.703Z,82.70
2019-01-21T19:37:21.925Z,69.90
2019-01-21T19:39:51.346Z,75.65
2019-01-21T19:42:20.635Z,72.32
2019-01-21T19:44:49.812Z,70.10
2019-01-21T19:47:19.122Z,100.95
2019-01-21T19:49:48.289Z,79.90
2019-01-21T19:52:17.597Z,74.07
2019-01-21T19:54:46.864Z,73.60
2019-01-21T19:57:16.125Z,75.87
2019-01-21T19:59:45.309Z,78.10
2019-01-21T20:02:15.800Z,75.15
2019-01-21T20:04:44.950Z,71.82
2019-01-21T20:07:14.440Z,72.10
2019-01-21T20:09:43.695Z,73.00
2019-01-21T20:12:14.283Z,72.78
2019-01-21T20:14:43.427Z,69.22
2019-01-21T20:17:12.720Z,69.95
2019-01-21T20:19:41.983Z,67.45
2019-01-21T20:22:11.398Z,73.37
2019-01-21T20:24:40.640Z,70.65
2019-01-21T20:27:09.892Z,74.27
2019-01-21T20:29:39.079Z,74.40
2019-01-21T20:32:08.429Z,74.82
2019-01-21T20:34:37.641Z,73.02
2019-01-21T20:37:08.849Z,74.77
2019-01-21T20:39:38.048Z,79.92
2019-01-21T20:42:07.295Z,74.17
2019-01-21T20:44:36.618Z,75.35
2019-01-21T20:47:05.743Z,70.25
2019-01-21T20:49:34.911Z,70.30
2019-01-21T20:52:04.072Z,76.92
2019-01-21T20:54:33.315Z,70.28
2019-01-21T20:57:02.624Z,76.10
2019-01-21T20:59:31.831Z,76.22
2019-01-21T21:02:00.972Z,74.17
2019-01-21T21:04:30.249Z,79.80
2019-01-21T21:06:59.391Z,76.37
2019-01-21T21:09:28.633Z,75.40
2019-01-21T21:11:57.695Z,75.17
2019-01-21T21:14:27.608Z,77.72
2019-01-21T21:16:56.700Z,78.83
2019-01-21T21:19:25.827Z,83.03
2019-01-21T21:21:54.931Z,78.12
2019-01-21T21:24:24.217Z,76.80
2019-01-21T21:26:54.823Z,79.92
2019-01-21T21:29:23.968Z,79.65
2019-01-21T21:31:53.030Z,79.90
2019-01-21T21:34:22.282Z,76.45
2019-01-21T21:36:51.429Z,78.35
2019-01-21T21:39:20.613Z,77.85
2019-01-21T21:41:49.689Z,77.22
2019-01-21T21:44:19.147Z,75.22
2019-01-21T21:46:48.234Z,77.12
2019-01-21T21:49:17.331Z,79.65
2019-01-21T21:51:46.412Z,78.15
2019-01-21T21:54:15.568Z,78.07
2019-01-21T21:56:44.940Z,78.65
2019-01-21T21:59:14.379Z,81.35
2019-01-21T22:01:43.525Z,75.20
2019-01-21T22:04:12.668Z,76.70
2019-01-21T22:06:41.898Z,78.83
2019-01-21T22:09:10.983Z,75.92
2019-01-21T22:11:40.424Z,80.65
2019-01-21T22:14:09.435Z,76.17
2019-01-21T22:16:38.540Z,78.40
2019-01-21T22:19:07.638Z,74.80
2019-01-21T22:21:36.938Z,77.20
2019-01-21T22:24:06.018Z,73.28
2019-01-21T22:26:35.181Z,72.67
2019-01-21T22:29:04.277Z,71.35
2019-01-21T22:31:34.057Z,76.57
2019-01-21T22:34:03.189Z,75.87
2019-01-21T22:36:32.308Z,70.83
2019-01-21T22:39:01.461Z,72.90
2019-01-21T22:41:30.650Z,70.28
2019-01-21T22:43:59.794Z,68.75
2019-01-21T22:46:29.602Z,72.80
2019-01-21T22:48:58.706Z,63.75
2019-01-21T22:51:27.835Z,69.53
2019-01-21T22:53:56.999Z,62.93
2019-01-21T22:56:26.103Z,63.28
2019-01-21T22:58:55.331Z,60.17
2019-01-21T23:01:27.354Z,60.88
2019-01-21T23:03:56.570Z,62.98
2019-01-21T23:06:25.775Z,59.53
2019-01-21T23:08:56.574Z,59.08
2019-01-21T23:11:27.225Z,57.75
2019-01-21T23:13:56.459Z,55.98
2019-01-21T23:16:25.513Z,58.78
2019-01-21T23:18:54.673Z,56.35
2019-01-21T23:21:23.749Z,61.02
2019-01-21T23:23:52.848Z,63.28
2019-01-21T23:26:22.007Z,64.72
2019-01-21T23:28:51.264Z,70.92
2019-01-21T23:31:20.514Z,64.27
2019-01-21T23:33:49.605Z,65.80
2019-01-21T23:36:18.783Z,64.30
2019-01-21T23:38:47.913Z,64.45
2019-01-21T23:41:17.533Z,65.03
2019-01-21T23:43:46.657Z,62.95
2019-01-21T23:46:16.046Z,60.67
2019-01-21T23:48:45.110Z,62.65
2019-01-21T23:51:14.278Z,62.78
2019-01-21T23:53:43.345Z,67.78
2019-01-21T23:56:12.423Z,65.35
2019-01-21T23:58:41.533Z,64.55
